This is the latest recevied weather packets stored in our database for station/object KA2FNK. If no packets are shown the sender has not sent any weather packets the latest 1 day(s).
| Time | Temp. | Humidity | Pressure | Rain* | Wind** | Luminosity | Snow |
|---|---|---|---|---|---|---|---|
| 1778078312 | 11.11° C | 60% | 1018.4 hPa | 0 mm | - | - | - |
| 1778077710 | 10.56° C | 61% | 1018.3 hPa | 0 mm | - | - | - |
| 1778073196 | 9.44° C | 73% | 1017.2 hPa | 0 mm | - | - | - |
| 1778072292 | 8.33° C | 79% | 1017.1 hPa | 0 mm | - | - | - |
| 1778071691 | 8.33° C | 84% | 1017 hPa | 0 mm | - | - | - |
| 1778071089 | 7.78° C | 86% | 1016.8 hPa | 0 mm | - | - | - |
| 1778070788 | 7.78° C | 87% | 1016.7 hPa | 0 mm | - | - | - |
| 1778068380 | 7.22° C | 93% | 1015.9 hPa | 0 mm | - | - | - |
| 1778067778 | 7.22° C | 92% | 1015.7 hPa | 0 mm | - | - | - |
| 1778065369 | 7.22° C | 92% | 1016 hPa | 0 mm | - | - | - |
| 1778065068 | 7.22° C | 92% | 1016.1 hPa | 0 mm | - | - | - |
| 1778064767 | 7.22° C | 92% | 1016.2 hPa | 0 mm | - | - | - |
| 1778063864 | 7.22° C | 93% | 1016.1 hPa | 0 mm | - | - | - |
| 1778063563 | 7.22° C | 93% | 1016.2 hPa | 0 mm | - | - | - |
| 1778063262 | 7.22° C | 93% | 1016.4 hPa | 0 mm | - | - | - |
| 1778062961 | 7.22° C | 94% | 1016.2 hPa | 0 mm | - | - | - |
| 1778062660 | 7.22° C | 94% | 1016.3 hPa | 0 mm | - | - | - |
| 1778062359 | 7.22° C | 94% | 1016.1 hPa | 0 mm | - | - | - |
| 1778062058 | 7.22° C | 94% | 1015.8 hPa | 0 mm | - | - | - |
| 1778061757 | 7.22° C | 93% | 1015.6 hPa | 0 mm | - | - | - |
| 1778061456 | 7.78° C | 93% | 1015.4 hPa | 0 mm | - | - | - |
| 1778061155 | 7.78° C | 92% | 1015.2 hPa | 0 mm | - | - | - |
| 1778060854 | 7.78° C | 91% | 1015.2 hPa | 0 mm | - | - | - |
| 1778060553 | 7.78° C | 90% | 1015 hPa | 0 mm | - | - | - |
| 1778060252 | 7.78° C | 90% | 1015 hPa | 0 mm | - | - | - |
* Rain latest hour (hover to see other rain measurements)
** Current wind speed in m/s (hover to see current wind gust speed)